M I D A S
Marine Information and Data Acquisition System
Tripno 367 of the Zeeleeuw from 2002-12-11 07:54:24 to 2002-12-11 13:24:04
Back to CruiseResearch ActivitiesStationsMapUnderway DataData graphs

EquipmentUnitsComment
TimeDGPSUTC
LatitudeDGPSDM.mWGS84
LongitudeDGPSDM.mWGS84
TemperatureSBE03/SBE38deg celciusITS90
ConductivitySBE21S/mITS90
SalinitySBE21 Practical Salinity Units
ChlorophylAChelsea fluorimeterg/lCalibrated in Aceton
Missing or incorrect values are displayed as -999
Sea surface data collected by the RV Zeeleeuw from 2002-12-11 07:54:24 to 2002-12-11 13:24:04
Time Latitude Longitude Temperature Conductivity Salinity ChlorophylA
2002-12-11 07:55:27 51°13.588 2°56.129 11.648818 0.251671 1.485897  
2002-12-11 07:56:28 51°13.586 2°56.128 11.255482 0.251567 1.485399  
2002-12-11 07:57:27 51°13.55 2°56.171 5.336071 0.251567 1.485575  
2002-12-11 07:58:27 51°13.529 2°56.241 5.693245 0.251567 1.485877  
2002-12-11 07:59:27 51°13.539 2°56.277 6.208809 0.251567 1.485902  
2002-12-11 08:00:28 51°13.529 2°56.252 6.605962 0.251567 1.486053  
2002-12-11 08:01:28 51°13.538 2°56.247 6.9543 0.251567 1.486229  
2002-12-11 08:02:28 51°13.521 2°56.246 7.21011 0.251567 1.486305  
2002-12-11 08:03:27 51°13.51 2°56.241 7.554055 0.251567 1.48643  
2002-12-11 08:04:27 51°13.536 2°56.187 7.684564 0.251567 1.486607  
2002-12-11 08:05:28 51°13.589 2°56.073 7.847595 0.251567 1.486758  
2002-12-11 08:06:24 51°13.639 2°55.955 8.091271 0.251567 1.486909  
2002-12-11 08:07:28 51°13.695 2°55.812 8.475882 0.251567 1.487035  
2002-12-11 08:08:27 51°13.764 2°55.693 9.691848 0.251567 1.487212  
2002-12-11 08:09:27 51°13.859 2°55.621 11.263119 0.251567 1.487388  
2002-12-11 08:10:26 51°13.959 2°55.558 12.852468 0.251567 1.48759  
2002-12-11 08:11:27 51°14.057 2°55.471 14.25203 0.251567 1.487767  
2002-12-11 08:12:28 51°14.178 2°55.367 16.218528 0.251567 1.487969  
2002-12-11 08:13:27 51°14.297 2°55.185 18.418142 0.251567 1.488221  
2002-12-11 08:14:28 51°14.418 2°54.953 20.063102 0.251567 1.488474  
2002-12-11 08:15:32 51°14.61 2°54.753 22.320923 0.251567 1.488625  
2002-12-11 08:16:32 51°14.794 2°54.568 28.845039 0.251567 1.488878  
2002-12-11 08:17:33 51°14.99 2°54.376 6.713058 0.338667 2.044405  
2002-12-11 08:18:32 51°15.179 2°54.187 18.852341 0.352634 2.134111  
2002-12-11 08:19:32 51°15.373 2°53.988 20.924774 0.008428 0.048639  
2002-12-11 08:20:33 51°15.573 2°53.786 21.074226 0.003544 0.024113  
2002-12-11 08:21:33 51°15.768 2°53.589 23.283528 0.004063 0.026638  
2002-12-11 08:22:33 51°15.964 2°53.391 22.873688 0.003959 0.026133  
2002-12-11 08:23:32 51°16.157 2°53.197 22.95568 0.003855 0.025624  
2002-12-11 08:24:32 51°16.351 2°53.001 21.601807 0.003751 0.025125  
2002-12-11 08:25:33 51°16.55 2°52.802 22.252277 0.003648 0.024624  
2002-12-11 08:26:32 51°16.748 2°52.623 22.441483 0.003648 0.024627  
2002-12-11 08:27:33 51°16.968 2°52.5 21.457189 0.003544 0.024125  
2002-12-11 08:28:32 51°17.184 2°52.405 21.262806 0.00344 0.023625  
2002-12-11 08:29:33 51°17.413 2°52.317 21.480018 0.003336 0.023125  
2002-12-11 08:30:33 51°17.637 2°52.229 21.507949 0.003336 0.023128  
2002-12-11 08:31:32 51°17.862 2°52.164 21.394927 0.003232 0.022626  
2002-12-11 08:32:32 51°18.091 2°52.13 22.037999 0.003232 0.022628  
2002-12-11 08:33:32 51°18.304 2°52.222 21.662387 0.003128 0.022125  
2002-12-11 08:34:33 51°18.46 2°52.473 21.927035 0.003024 0.021622  
2002-12-11 08:35:33 51°18.592 2°52.748 21.062708 0.003024 0.021622  
2002-12-11 08:36:32 51°18.706 2°53.031 20.788493 0.00292 0.021118  
2002-12-11 08:37:33 51°18.826 2°53.324 20.49023 0.00292 0.021117  
2002-12-11 08:38:33 51°18.942 2°53.61 20.411182 0.00292 0.021116  
2002-12-11 08:39:33 51°19.055 2°53.905 20.050446 0.002816 0.020608  
2002-12-11 08:40:32 51°19.167 2°54.192 21.605407 0.002816 0.020606  
2002-12-11 08:41:33 51°19.285 2°54.487 20.390099 0.002816 0.020605  
2002-12-11 08:42:32 51°19.399 2°54.771 21.356074 0.002712 0.020097  
2002-12-11 08:43:33 51°19.518 2°55.066 20.317022 0.002712 0.020096  
2002-12-11 08:44:33 51°19.635 2°55.358 20.73325 0.002712 0.020095  
2002-12-11 08:45:34 51°19.756 2°55.653 20.463582 0.002608 0.019588  
2002-12-11 08:46:32 51°19.869 2°55.934 19.911451 0.002608 0.019587  
2002-12-11 08:47:32 51°19.987 2°56.221 20.517108 0.002608 0.019586  
2002-12-11 08:48:32 51°20.104 2°56.507 20.362648 0.002608 0.019584  
2002-12-11 08:49:32 51°20.165 2°56.831 19.981186 0.002505 0.019078  
2002-12-11 08:50:32 51°20.231 2°57.156 19.724667 0.002505 0.019074  
2002-12-11 08:51:33 51°20.296 2°57.485 20.441067 0.002505 0.019074  
2002-12-11 08:52:33 51°20.362 2°57.809 20.50594 0.002505 0.019075  
2002-12-11 08:53:33 51°20.428 2°58.132 20.120003 0.002401 0.018571  
2002-12-11 08:54:33 51°20.493 2°58.452 20.340785 0.002401 0.018571  
2002-12-11 08:55:33 51°20.559 2°58.77 19.150949 0.002401 0.018572  
2002-12-11 08:56:32 51°20.623 2°59.085 19.705449 0.002297 0.01807  
2002-12-11 08:57:34 51°20.69 2°59.416 20.043087 0.002297 0.01807  
2002-12-11 08:58:32 51°20.754 2°59.726 18.655074 0.002297 0.01807  
2002-12-11 08:59:34 51°20.822 3°0.056 19.401572 0.002297 0.01807  
2002-12-11 09:00:33 51°20.885 3°0.368 19.696427 0.002193 0.017571  
2002-12-11 09:01:33 51°20.95 3°0.687 19.830575 0.002193 0.017572  
2002-12-11 09:02:33 51°21.015 3°1.004 19.102888 0.002193 0.017572  
2002-12-11 09:03:33 51°21.081 3°1.32 19.109282 0.002089 0.017076  
2002-12-11 09:04:33 51°21.146 3°1.639 19.218211 0.002089 0.017076  
2002-12-11 09:05:33 51°21.212 3°1.955 18.947829 0.002089 0.017075  
2002-12-11 09:06:33 51°21.276 3°2.268 20.179925 0.002089 0.017075  
2002-12-11 09:07:32 51°21.341 3°2.577 19.483596 0.001985 0.016581  
2002-12-11 09:08:32 51°21.405 3°2.891 19.482496 0.001985 0.01658  
2002-12-11 09:09:32 51°21.471 3°3.207 19.871288 0.001985 0.016579  
2002-12-11 09:10:32 51°21.537 3°3.525 19.396267 0.001985 0.016578  
2002-12-11 09:11:32 51°21.603 3°3.842 19.171711 0.001985 0.016577  
2002-12-11 09:12:33 51°21.669 3°4.165 18.837038 0.001985 0.016576  
2002-12-11 09:13:32 51°21.733 3°4.479 19.140995 0.001881 0.016083  
2002-12-11 09:14:33 51°21.8 3°4.802 19.105921 0.001881 0.016083  
2002-12-11 09:15:33 51°21.866 3°5.12 20.044098 0.001881 0.016081  
2002-12-11 09:16:32 51°21.931 3°5.432 19.166102 0.001881 0.01608  
2002-12-11 09:17:32 51°21.996 3°5.748 19.164382 0.001881 0.016078  
2002-12-11 09:18:33 51°22.062 3°6.069 19.351233 0.001881 0.016076  
2002-12-11 09:19:33 51°22.128 3°6.386 19.250529 0.001881 0.016073  
2002-12-11 09:20:33 51°22.194 3°6.702 18.840206 0.001777 0.015582  
2002-12-11 09:21:32 51°22.257 3°7.013 19.392961 0.001777 0.01558  
2002-12-11 09:22:33 51°22.324 3°7.332 19.380225 0.001777 0.015578  
2002-12-11 09:23:33 51°22.387 3°7.646 18.539312 0.001777 0.015576  
2002-12-11 09:24:33 51°22.452 3°7.958 18.74387 0.001777 0.015574  
2002-12-11 09:25:33 51°22.517 3°8.269 19.676064 0.001777 0.015572  
2002-12-11 09:26:33 51°22.581 3°8.58 18.870808 0.001777 0.01557  
2002-12-11 09:27:32 51°22.627 3°8.852 18.541626 0.001777 0.015567  
2002-12-11 09:28:33 51°22.645 3°8.987 18.524559 0.001777 0.015568  
2002-12-11 09:29:32 51°22.653 3°9.049 18.631805 0.001673 0.015079  
2002-12-11 09:30:33 51°22.663 3°9.099 18.090673 0.001673 0.015082  
2002-12-11 09:31:32 51°22.685 3°9.171 19.112356 0.001673 0.015084  
2002-12-11 09:32:44 51°22.693 3°9.275 18.872699 0.001673 0.015083  
2002-12-11 09:33:46 51°22.694 3°9.375 18.880224 0.001673 0.015083  
2002-12-11 09:34:48 51°22.702 3°9.448 19.478542 0.001673 0.015083  
2002-12-11 09:35:49 51°22.717 3°9.464 18.929054 0.001673 0.015083  
2002-12-11 09:36:48 51°22.731 3°9.45 18.257028 0.001673 0.015081  
2002-12-11 09:37:49 51°22.742 3°9.42 18.158426 0.001673 0.015079  
2002-12-11 09:38:49 51°22.751 3°9.398 18.099863 0.001673 0.015075  
2002-12-11 09:39:48 51°22.753 3°9.382 17.99933 0.001673 0.015073  
2002-12-11 09:40:48 51°22.758 3°9.365 18.11774 0.001673 0.015072  
2002-12-11 09:41:48 51°22.774 3°9.342 18.708925 0.001569 0.014587  
2002-12-11 09:42:49 51°22.791 3°9.324 17.892187 0.001569 0.014584  
2002-12-11 09:43:49 51°22.806 3°9.306 18.33183 0.001569 0.014582  
2002-12-11 09:44:49 51°22.821 3°9.29 18.128506 0.001569 0.014579  
2002-12-11 09:45:49 51°22.836 3°9.275 18.776038 0.001569 0.014575  
2002-12-11 09:46:49 51°22.849 3°9.263 18.770067 0.001569 0.014571  
2002-12-11 09:47:49 51°22.878 3°9.257 18.724504 0.001569 0.014568  
2002-12-11 09:48:48 51°22.962 3°9.171 18.441524 0.001569 0.014564  
2002-12-11 09:49:49 51°23.078 3°8.974 19.107643 0.001569 0.01456  
2002-12-11 09:50:49 51°23.189 3°8.785 18.488512 0.001569 0.014556  
2002-12-11 09:51:48 51°23.307 3°8.639 19.646788 0.001569 0.014552  
2002-12-11 09:52:48 51°23.472 3°8.375 19.632552 0.001569 0.014549  
2002-12-11 09:53:49 51°23.623 3°8.044 18.323707 0.001569 0.014545  
2002-12-11 09:54:49 51°23.766 3°7.712 19.64207 0.001465 0.01406  
2002-12-11 09:55:49 51°23.907 3°7.387 18.923918 0.001465 0.014054  
2002-12-11 09:56:49 51°24.01 3°7.174 18.55088 0.001465 0.014048  
2002-12-11 09:57:49 51°24.084 3°7.043 18.956578 0.001465 0.014045  
2002-12-11 09:58:49 51°24.167 3°6.93 19.078087 0.001465 0.014041  
2002-12-11 09:59:48 51°24.252 3°6.866 19.593288 0.001465 0.014043  
2002-12-11 10:00:49 51°24.289 3°6.972 19.558358 0.001465 0.014035  
2002-12-11 10:01:49 51°24.297 3°7.031 18.528775 0.001465 0.014038  
2002-12-11 10:02:49 51°24.29 3°7.042 18.715314 0.001465 0.014037  
2002-12-11 10:03:50 51°24.28 3°7.044 18.197966 0.001465 0.014033  
2002-12-11 10:04:49 51°24.274 3°7.045 18.604028 0.001465 0.014028  
2002-12-11 10:05:48 51°24.274 3°7.047 18.669427 0.001465 0.014028  
2002-12-11 10:06:48 51°24.281 3°7.048 18.265034 0.001465 0.014032  
2002-12-11 10:07:48 51°24.3 3°7.038 17.283951 0.001465 0.014034  
2002-12-11 10:08:49 51°24.33 3°7.015 18.527948 0.001465 0.014032  
2002-12-11 10:09:48 51°24.351 3°6.978 19.486531 0.001465 0.01403  
2002-12-11 10:10:48 51°24.368 3°6.931 18.746259 0.001465 0.014027  
2002-12-11 10:11:49 51°24.384 3°6.88 18.078986 0.001465 0.014023  
2002-12-11 10:12:49 51°24.402 3°6.834 18.257733 0.001465 0.01402  
2002-12-11 10:13:49 51°24.412 3°6.777 18.108927 0.001465 0.014017  
2002-12-11 10:14:48 51°24.418 3°6.718 18.329343 0.001362 0.01353  
2002-12-11 10:15:48 51°24.423 3°6.657 18.472384 0.001362 0.013527  
2002-12-11 10:16:49 51°24.43 3°6.596 19.064474 0.001362 0.013524  
2002-12-11 10:17:49 51°24.448 3°6.521 18.453398 0.001362 0.01352  
2002-12-11 10:18:49 51°24.468 3°6.416 18.527039 0.001362 0.013517  
2002-12-11 10:19:48 51°24.467 3°6.317 19.71191 0.001362 0.013513  
2002-12-11 10:20:49 51°24.432 3°6.235 19.090509 0.001362 0.013511  
2002-12-11 10:21:48 51°24.385 3°6.222 19.660086 0.001362 0.013508  
2002-12-11 10:22:48 51°24.361 3°6.278 19.584374 0.001362 0.013505  
2002-12-11 10:23:48 51°24.364 3°6.382 19.325417 0.001362 0.013503  
2002-12-11 10:24:49 51°24.361 3°6.504 19.237031 0.001362 0.013506  
2002-12-11 10:25:49 51°24.346 3°6.625 19.399164 0.001362 0.013515  
2002-12-11 10:26:49 51°24.34 3°6.698 19.886367 0.001362 0.013521  
2002-12-11 10:27:48 51°24.336 3°6.733 19.330197 0.001362 0.013525  
2002-12-11 10:28:48 51°24.328 3°6.754 19.528382 0.001362 0.013528  
2002-12-11 10:29:48 51°24.319 3°6.779 18.504926 0.001362 0.013528  
2002-12-11 10:30:49 51°24.304 3°6.809 17.854433 0.001362 0.013527  
2002-12-11 10:31:49 51°24.27 3°6.843 19.251061 0.001362 0.013525  
2002-12-11 10:32:48 51°24.255 3°6.874 18.325945 0.001362 0.013522  
2002-12-11 10:33:49 51°24.264 3°6.884 18.592717 0.001362 0.01352  
2002-12-11 10:34:49 51°24.27 3°6.886 17.487753 0.001362 0.013518  
2002-12-11 10:35:49 51°24.276 3°6.882 17.718013 0.001362 0.013518  
2002-12-11 10:36:48 51°24.288 3°6.878 18.676727 0.001362 0.013518  
2002-12-11 10:37:49 51°24.303 3°6.848 17.994375 0.001362 0.013517  
2002-12-11 10:38:48 51°24.344 3°6.815 19.423811 0.001362 0.013514  
2002-12-11 10:39:49 51°24.405 3°6.662 19.037198 0.001362 0.013509  
2002-12-11 10:40:49 51°24.462 3°6.399 18.487851 0.001362 0.013505  
2002-12-11 10:41:48 51°24.52 3°6.125 18.909411 0.001258 0.013021  
2002-12-11 10:42:48 51°24.58 3°5.847 19.372223 0.001258 0.013016  
2002-12-11 10:43:49 51°24.614 3°5.552 19.719629 0.001258 0.013012  
2002-12-11 10:44:49 51°24.645 3°5.258 18.675984 0.001258 0.013008  
2002-12-11 10:45:49 51°24.68 3°5.035 18.93078 0.001258 0.013004  
2002-12-11 10:46:49 51°24.713 3°4.891 18.517285 0.001258 0.013002  
2002-12-11 10:47:49 51°24.747 3°4.79 19.074725 0.001258 0.012999  
2002-12-11 10:48:49 51°24.776 3°4.714 18.397775 0.001258 0.012997  
2002-12-11 10:49:49 51°24.795 3°4.655 18.902095 0.001258 0.012995  
2002-12-11 10:50:49 51°24.808 3°4.601 19.338204 0.001258 0.012993  
2002-12-11 10:51:48 51°24.818 3°4.551 19.393491 0.001258 0.012991  
2002-12-11 10:52:48 51°24.825 3°4.499 19.357319 0.001258 0.012989  
2002-12-11 10:53:49 51°24.827 3°4.446 19.270117 0.001258 0.012988  
2002-12-11 10:54:49 51°24.825 3°4.395 19.296812 0.001258 0.012986  
2002-12-11 10:55:49 51°24.822 3°4.343 19.411652 0.001258 0.012985  
2002-12-11 10:56:49 51°24.818 3°4.292 20.474596 0.001258 0.012983  
2002-12-11 10:57:48 51°24.815 3°4.24 18.951896 0.001258 0.012982  
2002-12-11 10:58:49 51°24.814 3°4.185 18.972882 0.001258 0.012981  
2002-12-11 10:59:48 51°24.814 3°4.131 19.335712 0.001258 0.01298  
2002-12-11 11:00:49 51°24.812 3°4.075 18.665509 0.001258 0.012979  
2002-12-11 11:01:48 51°24.812 3°4.024 19.317286 0.001258 0.012978  
2002-12-11 11:02:48 51°24.811 3°3.97 19.382429 0.001258 0.012978  
2002-12-11 11:03:49 51°24.809 3°3.917 18.559927 0.001258 0.012977  
2002-12-11 11:04:50 51°24.806 3°3.863 19.556852 0.001258 0.012976  
2002-12-11 11:05:50 51°24.801 3°3.808 19.202455 0.001258 0.012975  
2002-12-11 11:06:49 51°24.806 3°3.75 18.941339 0.001258 0.012974  
2002-12-11 11:07:49 51°24.865 3°3.687 18.524642 0.001258 0.012974  
2002-12-11 11:08:48 51°24.971 3°3.598 19.336488 0.001258 0.012973  
2002-12-11 11:09:48 51°25.09 3°3.453 19.407245 0.001258 0.012973  
2002-12-11 11:10:49 51°25.189 3°3.261 19.370794 0.001258 0.012972  
2002-12-11 11:11:49 51°25.234 3°3.036 18.574548 0.001258 0.012971  
2002-12-11 11:12:50 51°25.246 3°2.881 19.255968 0.001258 0.012972  
2002-12-11 11:13:49 51°25.266 3°2.784 19.059183 0.001258 0.012972  
2002-12-11 11:14:50 51°25.289 3°2.711 19.185018 0.001258 0.012972  
2002-12-11 11:15:49 51°25.307 3°2.653 18.638489 0.001258 0.012972  
2002-12-11 11:16:50 51°25.319 3°2.601 18.931027 0.001258 0.012971  
2002-12-11 11:17:49 51°25.328 3°2.556 19.377979 0.001258 0.012971  
2002-12-11 11:18:49 51°25.343 3°2.503 18.796048 0.001258 0.012971  
2002-12-11 11:19:49 51°25.366 3°2.427 19.426749 0.001154 0.012492  
2002-12-11 11:20:49 51°25.365 3°2.322 18.960439 0.001154 0.012491  
2002-12-11 11:21:49 51°25.316 3°2.239 19.483067 0.001154 0.012492  
2002-12-11 11:22:49 51°25.207 3°2.156 19.650042 0.001154 0.012492  
2002-12-11 11:23:49 51°25.054 3°2.08 19.59109 0.001154 0.012493  
2002-12-11 11:24:49 51°24.893 3°1.991 19.065622 0.001154 0.012491  
2002-12-11 11:25:49 51°24.731 3°1.949 19.543901 0.001154 0.012491  
2002-12-11 11:26:50 51°24.566 3°1.928 19.397573 0.001154 0.012491  
2002-12-11 11:27:49 51°24.405 3°1.91 19.729948 0.001154 0.012491  
2002-12-11 11:28:49 51°24.24 3°1.884 19.092108 0.001154 0.01249  
2002-12-11 11:29:48 51°24.079 3°1.852 19.554653 0.001154 0.01249  
2002-12-11 11:30:49 51°23.912 3°1.818 19.235599 0.001154 0.012489  
2002-12-11 11:31:49 51°23.753 3°1.713 19.204706 0.001154 0.012489  
2002-12-11 11:32:49 51°23.596 3°1.587 18.929712 0.001154 0.012488  
2002-12-11 11:33:49 51°23.441 3°1.456 19.700451 0.001154 0.012488  
2002-12-11 11:34:50 51°23.282 3°1.322 19.001538 0.001154 0.012487  
2002-12-11 11:35:48 51°23.131 3°1.2 19.049914 0.001154 0.012487  
2002-12-11 11:36:49 51°22.971 3°1.07 19.39945 0.001154 0.012486  
2002-12-11 11:37:48 51°22.816 3°0.938 18.917795 0.001154 0.012486  
2002-12-11 11:38:49 51°22.653 3°0.81 19.417446 0.001154 0.012486  
2002-12-11 11:39:48 51°22.498 3°0.684 18.680273 0.001154 0.012486  
2002-12-11 11:40:49 51°22.336 3°0.557 19.061931 0.001154 0.012485  
2002-12-11 11:41:48 51°22.179 3°0.432 18.885035 0.001154 0.012485  
2002-12-11 11:42:50 51°22.015 3°0.3 18.729449 0.001154 0.012484  
2002-12-11 11:43:49 51°21.858 3°0.172 19.50532 0.001154 0.012485  
2002-12-11 11:44:49 51°21.698 3°0.041 19.097232 0.001154 0.012484  
2002-12-11 11:45:49 51°21.536 2°59.929 19.192468 0.001154 0.012483  
2002-12-11 11:46:48 51°21.371 2°59.914 19.008556 0.001154 0.012483  
2002-12-11 11:47:49 51°21.2 2°59.919 19.632756 0.001154 0.012482  
2002-12-11 11:48:49 51°21.03 2°59.919 19.005848 0.001154 0.012482  
2002-12-11 11:49:48 51°20.874 2°59.94 19.93361 0.001154 0.012482  
2002-12-11 11:50:49 51°20.786 2°59.966 18.874344 0.001154 0.012482  
2002-12-11 11:51:50 51°20.735 2°59.971 19.415733 0.001154 0.012483  
2002-12-11 11:52:48 51°20.699 2°59.96 19.080998 0.001154 0.012483  
2002-12-11 11:53:48 51°20.668 2°59.94 19.524308 0.001154 0.012484  
2002-12-11 11:54:50 51°20.642 2°59.909 19.378143 0.001154 0.012484  
2002-12-11 11:55:49 51°20.621 2°59.877 19.909628 0.001154 0.012485  
2002-12-11 11:56:48 51°20.6 2°59.845 19.081613 0.001154 0.012485  
2002-12-11 11:57:48 51°20.579 2°59.81 18.545551 0.001154 0.012486  
2002-12-11 11:58:49 51°20.561 2°59.776 18.845677 0.001154 0.012486  
2002-12-11 11:59:50 51°20.54 2°59.739 18.860526 0.001154 0.012486  
2002-12-11 12:00:50 51°20.521 2°59.701 19.990535 0.001154 0.012487  
2002-12-11 12:01:49 51°20.505 2°59.665 19.853408 0.001154 0.012487  
2002-12-11 12:02:48 51°20.485 2°59.627 20.124486 0.001154 0.012488  
2002-12-11 12:03:50 51°20.463 2°59.589 19.622179 0.001154 0.012488  
2002-12-11 12:04:50 51°20.442 2°59.551 19.390307 0.001154 0.012489  
2002-12-11 12:05:48 51°20.42 2°59.517 19.801485 0.001154 0.01249  
2002-12-11 12:06:49 51°20.397 2°59.48 19.814551 0.001154 0.01249  
2002-12-11 12:07:50 51°20.374 2°59.444 19.350172 0.001154 0.01249  
2002-12-11 12:08:48 51°20.353 2°59.41 19.906468 0.001154 0.012491  
2002-12-11 12:09:49 51°20.274 2°59.4 19.610542 0.001154 0.012492  
2002-12-11 12:10:50 51°20.124 2°59.284 19.264597 0.001154 0.012493  
2002-12-11 12:11:50 51°20.055 2°59.015 19.257032 0.001154 0.012492  
2002-12-11 12:12:49 51°19.992 2°58.734 19.428054 0.001154 0.012492  
2002-12-11 12:13:50 51°19.928 2°58.439 20.354878 0.001154 0.012491  
2002-12-11 12:14:50 51°19.866 2°58.15 20.452848 0.001154 0.012493  
2002-12-11 12:15:50 51°19.804 2°57.861 19.719629 0.001154 0.012493  
2002-12-11 12:16:50 51°19.741 2°57.57 19.649594 0.001154 0.012495  
2002-12-11 12:17:49 51°19.676 2°57.281 19.88503 0.001154 0.012496  
2002-12-11 12:18:50 51°19.61 2°56.979 19.734822 0.001154 0.012497  
2002-12-11 12:19:49 51°19.546 2°56.689 19.297466 0.001154 0.012498  
2002-12-11 12:20:50 51°19.479 2°56.391 20.239151 0.001154 0.0125  
2002-12-11 12:21:50 51°19.413 2°56.095 19.90902 0.001154 0.0125  
2002-12-11 12:22:50 51°19.345 2°55.8 19.530419 0.00105 0.012029  
2002-12-11 12:23:50 51°19.28 2°55.511 19.618924 0.001154 0.0125  
2002-12-11 12:24:50 51°19.213 2°55.22 19.493868 0.001154 0.012499  
2002-12-11 12:25:50 51°19.144 2°54.93 19.70874 0.00105 0.012029  
2002-12-11 12:26:49 51°19.081 2°54.644 19.651912 0.001154 0.012497  
2002-12-11 12:27:50 51°19.012 2°54.348 20.563167 0.00105 0.012025  
2002-12-11 12:28:48 51°18.946 2°54.069 20.019951 0.001154 0.012496  
2002-12-11 12:29:50 51°18.876 2°53.773 19.260508 0.001154 0.012492  
2002-12-11 12:30:49 51°18.798 2°53.496 18.646617 0.00105 0.012019  
2002-12-11 12:31:50 51°18.715 2°53.212 19.036295 0.00105 0.012022  
2002-12-11 12:32:50 51°18.633 2°52.934 19.384021 0.00105 0.012017  
2002-12-11 12:33:49 51°18.542 2°52.673 19.210681 0.00105 0.012017  
2002-12-11 12:34:50 51°18.424 2°52.428 19.559702 0.00105 0.012013  
2002-12-11 12:35:50 51°18.281 2°52.229 19.440577 0.00105 0.01201  
2002-12-11 12:36:50 51°18.107 2°52.127 19.49342 0.00105 0.012008  
2002-12-11 12:37:50 51°17.928 2°52.134 18.745435 0.00105 0.012005  
2002-12-11 12:38:50 51°17.749 2°52.156 19.333996 0.00105 0.012003  
2002-12-11 12:39:50 51°17.566 2°52.175 18.693962 0.00105 0.012001  
2002-12-11 12:40:50 51°17.384 2°52.192 19.831305 0.00105 0.011998  
2002-12-11 12:41:50 51°17.213 2°52.263 19.603828 0.00105 0.011995  
2002-12-11 12:42:50 51°17.051 2°52.366 19.656019 0.00105 0.011991  
2002-12-11 12:43:50 51°16.888 2°52.473 19.659028 0.00105 0.011987  
2002-12-11 12:44:50 51°16.728 2°52.586 18.751697 0.00105 0.011981  
2002-12-11 12:45:49 51°16.598 2°52.75 18.579008 0.00105 0.011976  
2002-12-11 12:46:50 51°16.476 2°52.942 19.040438 0.00105 0.011975  
2002-12-11 12:47:50 51°16.357 2°53.129 19.513552 0.00105 0.01198  
2002-12-11 12:48:49 51°16.238 2°53.308 18.910603 0.00105 0.011985  
2002-12-11 12:49:49 51°16.109 2°53.476 19.334119 0.00105 0.011989  
2002-12-11 12:50:50 51°15.981 2°53.649 19.307765 0.00105 0.011991  
2002-12-11 12:51:50 51°15.899 2°53.845 19.701304 0.00105 0.011993  
2002-12-11 12:52:49 51°15.93 2°54.061 19.417609 0.00105 0.011992  
2002-12-11 12:53:49 51°15.976 2°54.241 19.437559 0.00105 0.01199  
2002-12-11 12:54:49 51°16.008 2°54.31 19.541254 0.00105 0.011988  
2002-12-11 12:55:50 51°16.031 2°54.33 19.590276 0.00105 0.011985  
2002-12-11 12:56:49 51°16.078 2°54.334 18.959535 0.00105 0.011982  
2002-12-11 12:57:50 51°16.122 2°54.198 19.24742 0.00105 0.011978  
2002-12-11 12:58:50 51°16.051 2°54.052 19.433928 0.00105 0.011974  
2002-12-11 12:59:50 51°15.912 2°54.029 18.9574 0.00105 0.011972  
2002-12-11 13:00:50 51°15.758 2°54.053 18.401459 0.00105 0.011968  
2002-12-11 13:01:50 51°15.612 2°54.129 19.116003 0.00105 0.011966  
2002-12-11 13:02:50 51°15.468 2°54.214 19.368385 0.00105 0.011962  
2002-12-11 13:03:49 51°15.324 2°54.301 19.188415 0.00105 0.011957  
2002-12-11 13:04:48 51°15.185 2°54.397 19.63845 0.00105 0.011952  
2002-12-11 13:05:50 51°15.038 2°54.494 19.770435 0.00105 0.011946  
2002-12-11 13:06:48 51°14.901 2°54.588 19.940374 0.00105 0.011941  
2002-12-11 13:07:49 51°14.759 2°54.69 18.997228 0.00105 0.011936  
2002-12-11 13:08:49 51°14.62 2°54.792 19.102765 0.00105 0.011931  
2002-12-11 13:09:49 51°14.488 2°54.91 19.00634 0.00105 0.011926  
2002-12-11 13:10:49 51°14.382 2°55.063 19.262021 0.00105 0.011923  
2002-12-11 13:11:50 51°14.295 2°55.212 18.888817 0.00105 0.011927  
2002-12-11 13:12:50 51°14.223 2°55.316 19.103052 0.00105 0.011934  
2002-12-11 13:13:50 51°14.15 2°55.385 19.016805 0.00105 0.011938  
2002-12-11 13:14:50 51°14.077 2°55.44 19.512655 0.00105 0.01194  
2002-12-11 13:15:50 51°14.006 2°55.495 19.755575 0.00105 0.011939  
2002-12-11 13:16:50 51°13.932 2°55.551 18.339165 0.00105 0.011937  
2002-12-11 13:17:50 51°13.859 2°55.61 18.815023 0.00105 0.011935  
2002-12-11 13:18:51 51°13.789 2°55.68 18.74733 0.00105 0.011933  
2002-12-11 13:19:49 51°13.734 2°55.759 19.258299 0.00105 0.011932  
2002-12-11 13:20:50 51°13.684 2°55.851 19.61392 0.00105 0.011933  
2002-12-11 13:21:49 51°13.649 2°55.93 19.444126 0.00105 0.011934  
2002-12-11 13:22:50 51°13.621 2°55.998 19.021976 0.00105 0.011934  
2002-12-11 13:23:50 51°13.601 2°56.061 19.18121 0.00105 0.011933